KALS/ALS METAR and TAF weather

Enter ICAO airport designator
Station Type Date Time Source
KALS METAR 2020/01/18 21:52 UTC NOAA

KALS 182152Z AUTO 00000KT 10SM CLR M02/M16 A3033 RMK AO2 SLP341 T10171156 $


Station Type Date Time Source
KALS Decoded METAR 2020/01/18 21:52 UTC NOAA

SAN LUIS VALLEY REGIONAL, CO, United States (KALS) 37-26N 105-52W 2299M
Jan 18, 2020 - 04:52 PM EST / 2020.01.18 2152 UTC
Wind: Calm:0
Visibility: 10 mile(s):0
Sky conditions: clear
Temperature: 28.9 F (-1.7 C)
Dew Point: 3.9 F (-15.6 C)
Relative Humidity: 33%
Pressure (altimeter): 30.33 in. Hg (1027 hPa)
ob: KALS 182152Z AUTO 00000KT 10SM CLR M02/M16 A3033 RMK AO2 SLP341 T10171156
cycle: 22

Station Type Date Time Source
KALS TAF 2020/01/18 18:36 UTC NOAA

TAF KALS 181734Z 1818/1918 VRB04KT P6SM SCT200
FM182100 18007KT P6SM BKN200
FM190100 VRB03KT P6SM BKN200
FM190600 VRB03KT P6SM SCT200

Example: see airport list